Time;durP1;ratioP1;P1;durP2;ratioP2;P2;SDS_P1;SDS_P2;PMS_P1;PMS_P2;Temp;Humidity;BMP_temperature;BMP_pressure;BME280_temperature;BME280_humidity;BME280_pressure;Samples;Min_cycle;Max_cycle;Signal;HPM_P1;HPM_P2
2021/07/09 00:02:02;;;;;;;10.48;4.78;;;16.70;99.90;;;;;;5032534;28;20056;-76
2021/07/09 00:04:28;;;;;;;5.72;4.40;;;16.70;99.90;;;;;;5032037;28;20537;-77
2021/07/09 00:06:57;;;;;;;6.57;4.30;;;16.60;99.90;;;;;;5030994;28;20119;-77
2021/07/09 00:09:24;;;;;;;9.07;4.85;;;16.60;99.90;;;;;;5035589;28;20484;-74
2021/07/09 00:11:51;;;;;;;5.78;4.50;;;16.50;99.90;;;;;;5032258;28;20100;-76
2021/07/09 00:14:25;;;;;;;8.00;4.97;;;16.50;99.90;;;;;;5030954;28;20096;-75
2021/07/09 00:16:50;;;;;;;9.75;5.60;;;16.30;99.90;;;;;;5032208;28;20034;-75
2021/07/09 00:19:16;;;;;;;7.85;5.20;;;16.40;99.90;;;;;;5032185;28;20026;-76
2021/07/09 00:21:42;;;;;;;7.72;5.70;;;16.50;99.90;;;;;;5032112;28;20024;-76
2021/07/09 00:24:08;;;;;;;6.18;5.38;;;16.60;99.90;;;;;;5030709;28;20034;-75
2021/07/09 00:26:35;;;;;;;7.70;5.25;;;16.60;99.90;;;;;;5031791;28;20057;-76
2021/07/09 00:29:01;;;;;;;10.77;5.80;;;16.60;99.90;;;;;;5031575;28;20029;-75
2021/07/09 00:31:30;;;;;;;10.85;6.50;;;16.60;99.90;;;;;;5032199;28;20036;-75
2021/07/09 00:33:57;;;;;;;10.07;6.63;;;16.50;99.90;;;;;;5030739;28;20376;-77
2021/07/09 00:36:23;;;;;;;10.02;6.65;;;16.50;99.90;;;;;;5030387;28;20032;-77
2021/07/09 00:38:48;;;;;;;10.25;8.07;;;16.40;99.90;;;;;;5031936;28;20030;-76
2021/07/09 00:41:14;;;;;;;12.80;7.85;;;16.40;99.90;;;;;;5031951;28;20029;-75
2021/07/09 00:43:40;;;;;;;10.70;9.05;;;16.30;99.90;;;;;;5031802;28;20056;-75
2021/07/09 00:46:06;;;;;;;10.25;9.23;;;16.30;99.90;;;;;;5030324;28;20030;-75
2021/07/09 00:48:32;;;;;;;9.57;8.00;;;16.20;99.90;;;;;;5031614;28;20029;-75
2021/07/09 00:51:05;;;;;;;12.57;7.80;;;16.20;99.90;;;;;;5030480;28;20427;-74
2021/07/09 00:53:31;;;;;;;15.23;8.23;;;16.30;99.90;;;;;;5030310;28;20028;-74
2021/07/09 00:55:57;;;;;;;11.80;7.70;;;16.50;99.90;;;;;;5030250;28;20472;-74
2021/07/09 00:58:23;;;;;;;11.82;8.05;;;16.70;99.90;;;;;;5031586;28;20075;-75
2021/07/09 01:00:48;;;;;;;8.98;7.20;;;16.70;99.90;;;;;;5031668;28;20029;-74
2021/07/09 01:03:15;;;;;;;9.85;8.45;;;16.70;99.90;;;;;;5030191;28;20037;-75
2021/07/09 01:05:40;;;;;;;11.52;8.13;;;16.50;99.90;;;;;;5031745;28;20021;-76
2021/07/09 01:08:07;;;;;;;11.00;9.43;;;16.40;99.90;;;;;;5030170;28;20108;-75
2021/07/09 01:10:32;;;;;;;12.65;10.45;;;16.20;99.90;;;;;;5030274;28;20560;-75
2021/07/09 01:12:58;;;;;;;13.48;10.60;;;16.10;99.90;;;;;;5030326;28;20143;-74
2021/07/09 01:15:24;;;;;;;14.77;10.05;;;16.10;99.90;;;;;;5031283;28;20029;-74
2021/07/09 01:17:51;;;;;;;14.00;10.35;;;16.20;99.90;;;;;;5031401;28;20105;-74
2021/07/09 01:20:20;;;;;;;13.95;9.50;;;16.20;99.90;;;;;;5031440;28;20029;-74
2021/07/09 01:22:47;;;;;;;13.07;10.07;;;16.20;99.90;;;;;;5029833;28;20514;-74
2021/07/09 01:25:21;;;;;;;14.43;9.90;;;16.30;99.90;;;;;;5031155;28;20472;-75
2021/07/09 01:27:58;;;;;;;11.68;9.50;;;16.20;99.90;;;;;;5031372;28;20033;-74
2021/07/09 01:30:25;;;;;;;16.25;11.90;;;16.30;99.90;;;;;;5031243;28;20064;-76
2021/07/09 01:32:52;;;;;;;17.20;10.98;;;16.30;99.90;;;;;;5030111;28;20484;-75
2021/07/09 01:35:18;;;;;;;15.40;12.10;;;16.30;99.90;;;;;;5030988;28;20025;-74
2021/07/09 01:37:55;;;;;;;13.75;10.35;;;16.40;99.90;;;;;;5031204;28;20017;-75
2021/07/09 01:40:21;;;;;;;16.33;13.85;;;16.40;99.90;;;;;;5029853;28;20021;-75
2021/07/09 01:42:47;;;;;;;11.32;10.23;;;16.40;99.90;;;;;;5034453;28;20434;-75
2021/07/09 01:45:12;;;;;;;13.13;11.13;;;16.40;99.90;;;;;;5033681;28;20553;-76
2021/07/09 01:47:38;;;;;;;13.57;11.57;;;16.40;99.90;;;;;;5034831;28;20539;-75
2021/07/09 01:50:05;;;;;;;14.10;12.43;;;16.40;99.90;;;;;;5033520;28;20566;-74
2021/07/09 01:52:31;;;;;;;17.63;12.70;;;16.40;99.90;;;;;;5034956;28;20379;-75
2021/07/09 01:55:00;;;;;;;14.57;12.73;;;16.30;99.90;;;;;;5034648;28;20029;-75
2021/07/09 01:57:29;;;;;;;15.00;12.35;;;16.50;99.90;;;;;;5034793;28;20492;-75
2021/07/09 01:59:56;;;;;;;13.82;11.55;;;16.50;99.90;;;;;;5034787;28;20029;-74
2021/07/09 02:02:22;;;;;;;16.60;14.80;;;16.50;99.90;;;;;;5033354;28;20096;-75
2021/07/09 02:04:53;;;;;;;16.73;14.55;;;16.50;99.90;;;;;;5034323;28;20029;-75
2021/07/09 02:07:20;;;;;;;21.20;15.60;;;16.40;99.90;;;;;;5034715;28;20025;-75
2021/07/09 02:09:48;;;;;;;17.80;15.35;;;16.30;99.90;;;;;;5034485;28;20434;-75
2021/07/09 02:12:15;;;;;;;18.25;16.33;;;16.30;99.90;;;;;;5034650;28;20040;-75
2021/07/09 02:14:41;;;;;;;19.27;16.92;;;16.30;99.90;;;;;;5032985;28;20613;-75
2021/07/09 02:17:12;;;;;;;18.75;16.10;;;16.30;99.90;;;;;;5033053;28;20581;-75
2021/07/09 02:19:39;;;;;;;20.25;18.02;;;16.40;99.90;;;;;;5034308;28;20095;-75
2021/07/09 02:22:08;;;;;;;20.55;18.35;;;16.40;99.90;;;;;;5033045;28;20112;-75
2021/07/09 02:24:34;;;;;;;21.27;17.88;;;16.30;99.90;;;;;;5034163;28;20068;-72
2021/07/09 02:27:03;;;;;;;20.65;18.38;;;16.40;99.90;;;;;;5034283;28;20029;-74
2021/07/09 02:29:33;;;;;;;22.83;19.38;;;16.40;99.90;;;;;;5034146;28;20033;-74
2021/07/09 02:32:01;;;;;;;18.88;16.88;;;16.40;99.90;;;;;;5034244;28;20498;-74
2021/07/09 02:34:28;;;;;;;24.45;20.05;;;16.30;99.90;;;;;;5033962;28;20097;-76
2021/07/09 02:36:55;;;;;;;23.13;18.67;;;16.30;99.90;;;;;;5034024;28;20032;-74
2021/07/09 02:39:22;;;;;;;20.35;18.13;;;16.40;99.90;;;;;;5034195;28;20030;-74
2021/07/09 02:41:48;;;;;;;19.67;17.08;;;16.40;99.90;;;;;;5032687;28;20025;-75
2021/07/09 02:44:14;;;;;;;19.55;17.45;;;16.40;99.90;;;;;;5032744;28;20071;-75
2021/07/09 02:46:40;;;;;;;19.63;17.27;;;16.50;99.90;;;;;;5032319;28;20491;-75
2021/07/09 02:49:05;;;;;;;24.33;20.17;;;16.50;99.90;;;;;;5033952;28;20436;-75
2021/07/09 02:51:31;;;;;;;21.52;18.60;;;16.50;99.90;;;;;;5032579;28;20419;-76
2021/07/09 02:53:56;;;;;;;25.77;20.42;;;16.50;99.90;;;;;;5032442;28;20025;-76
2021/07/09 02:56:22;;;;;;;20.70;18.67;;;16.40;99.90;;;;;;5033387;28;20034;-75
2021/07/09 02:58:47;;;;;;;20.67;17.83;;;16.30;99.90;;;;;;5032456;28;20116;-74
2021/07/09 03:01:13;;;;;;;20.92;18.73;;;16.40;99.90;;;;;;5033591;28;20498;-74
2021/07/09 03:03:38;;;;;;;24.20;20.80;;;16.50;99.90;;;;;;5032181;28;20040;-74
2021/07/09 03:06:04;;;;;;;24.35;20.85;;;16.40;99.90;;;;;;5033350;28;20484;-74
2021/07/09 03:08:29;;;;;;;27.48;21.83;;;16.40;99.90;;;;;;5033371;28;20026;-75
2021/07/09 03:10:55;;;;;;;27.00;21.85;;;16.40;99.90;;;;;;5033348;28;20515;-75
2021/07/09 03:13:20;;;;;;;24.20;18.73;;;16.20;99.90;;;;;;5033508;28;20446;-73
2021/07/09 03:15:46;;;;;;;23.92;20.17;;;16.10;99.90;;;;;;5032963;28;20507;-73
2021/07/09 03:18:11;;;;;;;26.52;21.50;;;16.00;99.90;;;;;;5033848;28;20022;-74
2021/07/09 03:20:37;;;;;;;23.80;20.48;;;16.10;99.90;;;;;;5033230;28;20096;-74
2021/07/09 03:23:03;;;;;;;22.17;19.65;;;16.20;99.90;;;;;;5033291;28;20018;-74
2021/07/09 03:25:29;;;;;;;23.90;19.45;;;16.10;99.90;;;;;;5032902;28;20159;-74
2021/07/09 03:27:54;;;;;;;24.55;17.35;;;16.10;99.90;;;;;;5031782;28;20108;-74
2021/07/09 03:30:20;;;;;;;18.00;16.20;;;16.10;99.90;;;;;;5033006;28;20021;-74
2021/07/09 03:32:46;;;;;;;18.83;16.60;;;16.10;99.90;;;;;;5033051;28;20047;-74
2021/07/09 03:35:12;;;;;;;18.20;16.33;;;16.00;99.90;;;;;;5032741;28;20025;-74
2021/07/09 03:37:38;;;;;;;18.10;16.00;;;16.00;99.90;;;;;;5033271;28;20530;-74
2021/07/09 03:40:05;;;;;;;18.30;15.43;;;16.00;99.90;;;;;;5032866;28;20411;-74
2021/07/09 03:42:31;;;;;;;18.17;15.88;;;16.00;99.90;;;;;;5032806;28;20029;-75
2021/07/09 03:44:56;;;;;;;18.15;15.07;;;16.00;99.90;;;;;;5032570;28;20373;-73
2021/07/09 03:47:22;;;;;;;17.05;15.27;;;16.10;99.90;;;;;;5031404;28;20030;-74
2021/07/09 03:49:47;;;;;;;17.25;14.90;;;16.00;99.90;;;;;;5032681;28;20141;-75
2021/07/09 03:52:13;;;;;;;17.20;15.40;;;16.10;99.90;;;;;;5032783;28;20487;-73
2021/07/09 03:54:38;;;;;;;17.90;16.00;;;16.00;99.90;;;;;;5032283;28;20026;-74
2021/07/09 03:57:05;;;;;;;15.38;13.85;;;15.90;99.90;;;;;;5032350;28;20026;-74
2021/07/09 03:59:30;;;;;;;17.92;15.45;;;16.00;99.90;;;;;;5032553;28;20522;-73
2021/07/09 04:01:55;;;;;;;18.05;15.95;;;16.00;99.90;;;;;;5032654;28;20029;-74
2021/07/09 04:04:21;;;;;;;15.90;14.18;;;15.90;99.90;;;;;;5031933;28;20045;-74
2021/07/09 04:06:46;;;;;;;16.48;14.75;;;16.00;99.90;;;;;;5031133;28;20116;-73
2021/07/09 04:09:12;;;;;;;15.27;13.77;;;16.20;99.90;;;;;;5027015;28;20053;-73
2021/07/09 04:11:37;;;;;;;13.88;12.55;;;16.10;99.90;;;;;;5031192;28;20491;-73
2021/07/09 04:14:03;;;;;;;13.63;12.35;;;16.10;99.90;;;;;;5032394;28;20494;-74
2021/07/09 04:16:29;;;;;;;14.40;12.88;;;16.10;99.90;;;;;;5032059;28;20475;-73
2021/07/09 04:18:54;;;;;;;14.02;11.85;;;16.10;99.90;;;;;;5032280;28;20109;-73
2021/07/09 04:21:20;;;;;;;13.48;12.07;;;16.10;99.90;;;;;;5032401;28;20037;-73
2021/07/09 04:23:45;;;;;;;13.38;12.07;;;16.10;99.90;;;;;;5032067;28;20456;-72
2021/07/09 04:26:11;;;;;;;13.60;12.23;;;16.10;99.90;;;;;;5032087;28;20037;-74
2021/07/09 04:28:36;;;;;;;13.25;11.90;;;16.10;99.90;;;;;;5030704;28;20025;-74
2021/07/09 04:31:02;;;;;;;14.52;13.07;;;16.00;99.90;;;;;;5032136;28;20515;-75
2021/07/09 04:33:27;;;;;;;14.60;12.10;;;16.00;99.90;;;;;;5030934;28;20048;-75
2021/07/09 04:35:53;;;;;;;11.30;10.20;;;15.90;99.90;;;;;;5031867;28;20116;-74
2021/07/09 04:38:19;;;;;;;11.93;10.73;;;16.00;99.90;;;;;;5030750;28;20022;-73
2021/07/09 04:40:45;;;;;;;10.45;9.35;;;16.00;99.90;;;;;;5031910;28;20087;-73
2021/07/09 04:43:11;;;;;;;10.05;9.05;;;16.00;99.90;;;;;;5031942;28;20021;-73
2021/07/09 04:45:37;;;;;;;9.18;8.27;;;16.10;99.90;;;;;;5030710;28;20071;-73
2021/07/09 04:48:02;;;;;;;9.85;8.95;;;16.00;99.90;;;;;;5031736;28;20017;-74
2021/07/09 04:50:28;;;;;;;13.00;9.60;;;16.00;99.90;;;;;;5031858;28;20108;-73
2021/07/09 04:52:53;;;;;;;9.07;8.18;;;15.90;99.90;;;;;;5030581;28;20025;-74
2021/07/09 04:55:19;;;;;;;9.45;8.23;;;16.00;99.90;;;;;;5031618;28;20029;-73
2021/07/09 04:57:44;;;;;;;10.18;8.05;;;16.00;99.90;;;;;;5031690;28;20030;-74
2021/07/09 05:00:11;;;;;;;9.85;8.98;;;15.90;99.90;;;;;;5031859;28;20029;-74
2021/07/09 05:02:37;;;;;;;11.50;10.30;;;15.90;99.90;;;;;;5030401;28;20029;-74
2021/07/09 05:05:06;;;;;;;12.15;11.00;;;15.90;99.90;;;;;;5030142;28;20060;-75
2021/07/09 05:07:31;;;;;;;12.65;11.32;;;15.90;99.90;;;;;;5030163;28;20022;-74
2021/07/09 05:09:57;;;;;;;14.93;13.35;;;16.00;99.90;;;;;;5028195;28;20387;-74
2021/07/09 05:12:22;;;;;;;14.70;13.20;;;15.90;99.90;;;;;;5031650;28;20068;-74
2021/07/09 05:14:48;;;;;;;13.93;12.43;;;15.80;99.90;;;;;;5031619;28;20057;-74
2021/07/09 05:17:13;;;;;;;15.85;14.15;;;15.80;99.90;;;;;;5033833;28;20029;-73
2021/07/09 05:19:39;;;;;;;16.33;14.35;;;15.70;99.90;;;;;;5035642;28;20083;-72
2021/07/09 05:22:04;;;;;;;16.58;14.52;;;15.60;99.90;;;;;;5035610;28;20029;-72
2021/07/09 05:24:30;;;;;;;15.13;12.90;;;15.50;99.90;;;;;;5035384;28;20033;-72
2021/07/09 05:26:55;;;;;;;13.20;11.90;;;15.60;99.90;;;;;;5035451;28;20515;-74
2021/07/09 05:29:22;;;;;;;13.75;12.35;;;15.70;99.90;;;;;;5035466;28;20105;-73
2021/07/09 05:31:47;;;;;;;11.90;10.80;;;15.80;99.90;;;;;;5034119;28;20033;-74
2021/07/09 05:34:13;;;;;;;12.20;10.90;;;15.80;99.90;;;;;;5033861;28;20392;-74
2021/07/09 05:36:38;;;;;;;12.40;11.00;;;15.60;99.90;;;;;;5034855;28;20515;-74
2021/07/09 05:39:05;;;;;;;12.57;10.90;;;15.60;99.90;;;;;;5035113;28;20488;-74
2021/07/09 05:41:31;;;;;;;11.80;10.27;;;15.70;99.90;;;;;;5034843;28;20025;-74
2021/07/09 05:43:57;;;;;;;11.88;10.65;;;15.60;99.90;;;;;;5035056;28;20029;-74
2021/07/09 05:46:22;;;;;;;12.02;10.68;;;15.50;99.90;;;;;;5033457;28;20053;-74
2021/07/09 05:48:48;;;;;;;10.15;9.07;;;15.50;99.90;;;;;;5033666;28;20124;-74
2021/07/09 05:51:13;;;;;;;12.32;10.38;;;15.40;99.90;;;;;;5034902;28;20017;-74
2021/07/09 05:53:39;;;;;;;11.20;9.98;;;15.20;99.90;;;;;;5034836;28;20101;-74
2021/07/09 05:56:04;;;;;;;13.75;12.35;;;15.20;99.90;;;;;;5034506;28;20033;-74
2021/07/09 05:58:30;;;;;;;12.52;11.32;;;15.20;99.90;;;;;;5034828;28;20024;-74
2021/07/09 06:00:55;;;;;;;11.45;10.13;;;15.10;99.90;;;;;;5034725;28;20049;-74
2021/07/09 06:03:21;;;;;;;14.02;11.77;;;15.10;99.90;;;;;;5034689;28;20029;-73
2021/07/09 06:05:46;;;;;;;11.65;10.45;;;15.10;99.90;;;;;;5034406;28;20029;-74
2021/07/09 06:08:12;;;;;;;11.75;10.55;;;15.10;99.90;;;;;;5034555;28;20392;-74
2021/07/09 06:10:38;;;;;;;12.40;11.20;;;15.10;99.90;;;;;;5034489;28;20431;-74
2021/07/09 06:13:04;;;;;;;12.80;10.88;;;15.10;99.90;;;;;;5034630;28;20022;-74
2021/07/09 06:15:30;;;;;;;12.63;11.13;;;15.00;99.90;;;;;;5034339;28;20498;-74
2021/07/09 06:17:56;;;;;;;14.88;13.27;;;15.00;99.90;;;;;;5034411;28;20034;-74
2021/07/09 06:20:22;;;;;;;12.63;11.30;;;15.10;99.90;;;;;;5034473;28;20120;-74
2021/07/09 06:22:47;;;;;;;12.60;11.00;;;15.10;99.90;;;;;;5034400;28;20029;-74
2021/07/09 06:25:15;;;;;;;13.77;10.32;;;15.00;99.90;;;;;;5034241;28;20482;-74
2021/07/09 06:27:41;;;;;;;11.60;10.30;;;15.00;99.90;;;;;;5032410;28;20025;-74
2021/07/09 06:30:07;;;;;;;12.38;11.07;;;15.00;99.90;;;;;;5034324;28;20029;-74
2021/07/09 06:32:33;;;;;;;15.52;12.05;;;15.00;99.90;;;;;;5032954;28;20476;-74
2021/07/09 06:34:58;;;;;;;14.65;11.98;;;15.10;99.90;;;;;;5033857;28;20036;-74
2021/07/09 06:37:24;;;;;;;10.57;9.57;;;15.20;99.90;;;;;;5032771;28;20083;-73
2021/07/09 06:39:50;;;;;;;11.95;9.90;;;15.20;99.90;;;;;;5034031;28;20025;-74
2021/07/09 06:42:15;;;;;;;16.75;12.70;;;15.30;99.90;;;;;;5034124;28;20496;-74
2021/07/09 06:44:41;;;;;;;13.00;11.60;;;15.20;99.90;;;;;;5033734;28;20044;-73
2021/07/09 06:47:06;;;;;;;14.05;11.07;;;15.20;99.90;;;;;;5033982;28;20025;-74
2021/07/09 06:49:32;;;;;;;11.48;10.00;;;15.00;99.90;;;;;;5033815;28;20032;-73
2021/07/09 06:51:57;;;;;;;11.82;10.57;;;15.10;99.90;;;;;;5033934;28;20026;-74
2021/07/09 06:54:23;;;;;;;15.40;11.18;;;15.00;99.90;;;;;;5033787;28;20025;-74
2021/07/09 06:56:48;;;;;;;12.88;11.30;;;15.00;99.90;;;;;;5032489;28;20407;-74
2021/07/09 06:59:14;;;;;;;16.17;12.05;;;14.90;99.90;;;;;;5032611;28;20128;-74
2021/07/09 07:01:39;;;;;;;13.75;11.40;;;14.90;99.90;;;;;;5032464;28;20033;-74
2021/07/09 07:04:07;;;;;;;20.42;13.55;;;14.90;99.90;;;;;;5033603;28;20041;-73
2021/07/09 07:06:33;;;;;;;14.00;11.52;;;14.90;99.90;;;;;;5033573;28;20109;-74
2021/07/09 07:08:58;;;;;;;11.35;9.43;;;14.90;99.90;;;;;;5033619;28;20156;-74
2021/07/09 07:11:24;;;;;;;11.02;9.82;;;15.00;99.90;;;;;;5033517;28;20053;-74
2021/07/09 07:13:50;;;;;;;12.43;10.10;;;15.00;99.90;;;;;;5033596;28;20388;-74
2021/07/09 07:16:15;;;;;;;12.10;10.00;;;15.00;99.90;;;;;;5033460;28;20096;-73
2021/07/09 07:18:41;;;;;;;12.07;9.27;;;15.10;99.90;;;;;;5032170;28;20040;-74
2021/07/09 07:21:06;;;;;;;8.68;7.78;;;15.10;99.90;;;;;;5033340;28;20369;-74
2021/07/09 07:23:32;;;;;;;7.32;6.63;;;15.20;99.90;;;;;;5033374;28;20132;-74
2021/07/09 07:25:58;;;;;;;7.30;6.60;;;15.10;99.90;;;;;;5019975;28;20065;-74
2021/07/09 07:28:23;;;;;;;8.20;6.40;;;15.10;99.90;;;;;;5033214;28;20027;-73
2021/07/09 07:30:49;;;;;;;9.70;8.68;;;15.10;99.90;;;;;;5033272;28;20498;-73
2021/07/09 07:33:14;;;;;;;9.75;7.78;;;15.20;99.90;;;;;;5033120;28;20480;-74
2021/07/09 07:35:40;;;;;;;9.93;8.45;;;15.10;99.90;;;;;;5032972;28;20032;-74
2021/07/09 07:38:07;;;;;;;11.50;8.02;;;15.10;99.90;;;;;;5033288;28;20113;-74
2021/07/09 07:40:36;;;;;;;7.35;6.65;;;15.10;99.90;;;;;;5032408;28;20033;-74
2021/07/09 07:43:01;;;;;;;7.85;6.25;;;15.10;99.90;;;;;;5032896;28;20372;-74
2021/07/09 07:45:27;;;;;;;7.05;6.35;;;15.00;99.90;;;;;;5032886;28;20025;-74
2021/07/09 07:47:52;;;;;;;6.25;5.65;;;14.90;99.90;;;;;;5032867;28;20074;-74
2021/07/09 07:50:21;;;;;;;5.50;5.00;;;14.90;99.90;;;;;;5032709;28;20122;-74
2021/07/09 07:52:50;;;;;;;7.45;6.03;;;14.90;99.90;;;;;;5032791;28;20105;-74
2021/07/09 07:55:16;;;;;;;5.60;5.10;;;15.00;99.90;;;;;;5031509;28;20072;-74
2021/07/09 07:57:42;;;;;;;5.13;4.72;;;14.90;99.90;;;;;;5032691;28;20034;-74
2021/07/09 08:00:08;;;;;;;5.35;4.78;;;15.00;99.90;;;;;;5031431;28;20167;-74
2021/07/09 08:02:34;;;;;;;5.20;4.78;;;14.90;99.90;;;;;;5032536;28;20458;-74
2021/07/09 08:04:59;;;;;;;4.80;4.30;;;14.90;99.90;;;;;;5032519;28;20116;-74
2021/07/09 08:07:25;;;;;;;5.00;4.25;;;14.90;99.90;;;;;;5032432;28;20132;-74
2021/07/09 08:09:50;;;;;;;5.25;4.75;;;14.90;99.90;;;;;;5032464;28;20076;-74
2021/07/09 08:12:16;;;;;;;5.00;4.60;;;14.90;99.90;;;;;;5032446;28;20029;-74
2021/07/09 08:14:42;;;;;;;5.20;4.68;;;15.00;99.90;;;;;;5032439;28;20075;-74
2021/07/09 08:17:07;;;;;;;4.40;4.00;;;15.10;99.90;;;;;;5032348;28;20029;-74
2021/07/09 08:19:33;;;;;;;4.82;4.38;;;15.00;99.90;;;;;;5032409;28;20470;-73
2021/07/09 08:21:59;;;;;;;4.65;4.25;;;15.00;99.90;;;;;;5032314;28;20037;-74
2021/07/09 08:24:25;;;;;;;3.95;3.65;;;15.10;99.90;;;;;;5032265;28;20096;-75
2021/07/09 08:26:51;;;;;;;4.38;3.72;;;15.10;99.90;;;;;;5032342;28;20067;-74
2021/07/09 08:29:16;;;;;;;3.70;3.38;;;15.10;99.90;;;;;;5032206;28;20030;-74
2021/07/09 08:31:42;;;;;;;4.03;3.67;;;15.20;99.90;;;;;;5032096;28;20030;-74
2021/07/09 08:34:07;;;;;;;5.00;3.90;;;15.10;99.90;;;;;;5030933;28;20029;-75
2021/07/09 08:36:33;;;;;;;3.53;3.22;;;15.10;99.90;;;;;;5030644;28;20113;-74
2021/07/09 08:38:59;;;;;;;4.60;3.92;;;15.20;99.90;;;;;;5032059;28;20068;-74
2021/07/09 08:41:24;;;;;;;3.17;2.90;;;15.30;99.90;;;;;;5032056;28;20418;-74
2021/07/09 08:43:50;;;;;;;3.17;2.95;;;15.40;99.90;;;;;;5031941;28;20032;-74
2021/07/09 08:46:17;;;;;;;3.67;3.00;;;15.50;99.90;;;;;;5030510;28;20033;-74
2021/07/09 08:48:43;;;;;;;3.10;2.80;;;15.50;99.90;;;;;;5031899;28;20032;-74
2021/07/09 08:51:10;;;;;;;2.97;2.70;;;15.50;99.90;;;;;;5031704;28;20025;-74
2021/07/09 08:53:36;;;;;;;3.35;3.05;;;15.50;99.90;;;;;;5030617;28;20047;-74
2021/07/09 08:56:02;;;;;;;3.35;3.05;;;15.50;99.90;;;;;;5031798;28;20372;-74
2021/07/09 08:58:28;;;;;;;3.92;2.90;;;15.40;99.90;;;;;;5031840;28;20492;-74
2021/07/09 09:00:55;;;;;;;2.97;2.78;;;15.50;99.90;;;;;;5031889;28;20029;-74
2021/07/09 09:03:24;;;;;;;3.20;2.90;;;15.50;99.90;;;;;;5031547;28;20036;-74
2021/07/09 09:05:51;;;;;;;3.17;2.88;;;15.50;99.90;;;;;;5030432;28;20484;-74
2021/07/09 09:08:20;;;;;;;3.47;2.80;;;15.50;99.90;;;;;;5031729;28;20037;-74
2021/07/09 09:10:47;;;;;;;3.40;3.10;;;15.60;99.90;;;;;;5031722;28;20446;-74
2021/07/09 09:13:21;;;;;;;3.65;3.35;;;15.50;99.90;;;;;;5030382;28;20141;-74
2021/07/09 09:16:01;;;;;;;4.40;4.00;;;15.60;99.90;;;;;;5031572;28;20025;-74
2021/07/09 09:18:33;;;;;;;4.63;4.22;;;15.60;99.90;;;;;;5030880;28;20026;-74
2021/07/09 09:21:04;;;;;;;4.70;4.30;;;15.80;99.90;;;;;;5031464;28;20014;-74
2021/07/09 09:23:31;;;;;;;4.85;4.43;;;15.90;99.90;;;;;;5031395;28;20022;-74
2021/07/09 09:25:57;;;;;;;4.72;4.32;;;15.80;99.90;;;;;;5017812;28;20029;-74
2021/07/09 09:28:23;;;;;;;5.03;4.50;;;15.80;99.90;;;;;;5031273;28;20044;-74
2021/07/09 09:30:52;;;;;;;5.47;4.50;;;16.00;99.90;;;;;;5030161;28;20029;-74
2021/07/09 09:33:18;;;;;;;4.40;4.10;;;16.00;99.90;;;;;;5031290;28;20025;-74
2021/07/09 09:35:47;;;;;;;4.55;4.15;;;15.90;99.90;;;;;;5029728;28;20026;-74
2021/07/09 09:38:18;;;;;;;4.43;4.00;;;16.00;99.90;;;;;;5031204;28;20091;-74
2021/07/09 09:40:45;;;;;;;4.40;3.97;;;16.00;99.90;;;;;;5030030;28;20051;-74
2021/07/09 09:43:17;;;;;;;4.38;3.95;;;16.10;99.90;;;;;;5031080;28;20399;-74
2021/07/09 09:45:43;;;;;;;4.60;3.92;;;16.10;99.90;;;;;;5029676;28;20090;-74
2021/07/09 09:48:12;;;;;;;4.63;4.22;;;16.00;99.90;;;;;;5031120;28;20033;-74
2021/07/09 09:50:43;;;;;;;5.00;4.35;;;16.00;99.90;;;;;;5031123;28;20025;-74
2021/07/09 09:53:09;;;;;;;5.10;4.28;;;16.10;99.90;;;;;;5030976;28;20033;-74
2021/07/09 09:55:35;;;;;;;5.50;4.05;;;16.20;99.90;;;;;;5030957;28;20025;-74
2021/07/09 09:58:18;;;;;;;4.32;3.92;;;16.20;99.90;;;;;;5031193;28;20033;-74
2021/07/09 10:00:49;;;;;;;4.78;4.20;;;16.10;99.90;;;;;;5031031;28;20025;-74
2021/07/09 10:03:15;;;;;;;4.60;4.20;;;16.20;99.90;;;;;;5033184;28;20038;-74
2021/07/09 10:05:46;;;;;;;5.43;4.35;;;16.30;99.90;;;;;;5033072;28;20029;-74
2021/07/09 10:08:13;;;;;;;4.65;4.20;;;16.20;99.90;;;;;;5035300;28;20026;-77
2021/07/09 10:10:44;;;;;;;4.68;4.13;;;16.30;99.90;;;;;;5034496;28;20479;-74
2021/07/09 10:13:13;;;;;;;4.53;4.10;;;16.30;99.90;;;;;;5034640;28;20036;-74
2021/07/09 10:15:40;;;;;;;4.03;3.72;;;16.30;99.90;;;;;;5032968;28;20076;-74
2021/07/09 10:18:12;;;;;;;4.38;3.80;;;16.40;99.90;;;;;;5034234;28;20025;-74
2021/07/09 10:20:40;;;;;;;4.22;3.85;;;16.40;99.90;;;;;;5033104;28;20029;-74
2021/07/09 10:23:07;;;;;;;4.88;4.40;;;16.40;99.90;;;;;;5034379;28;20476;-74
2021/07/09 10:25:33;;;;;;;4.80;4.38;;;16.40;99.90;;;;;;5034112;28;20105;-77
2021/07/09 10:27:59;;;;;;;4.70;4.22;;;16.50;99.90;;;;;;5033083;28;20116;-74
2021/07/09 10:30:35;;;;;;;4.28;3.88;;;16.40;99.90;;;;;;5034100;28;20212;-74
2021/07/09 10:33:01;;;;;;;5.47;4.72;;;16.40;99.90;;;;;;5032996;28;20076;-74
2021/07/09 10:35:34;;;;;;;4.60;4.10;;;16.30;99.90;;;;;;5033934;28;20455;-74
2021/07/09 10:38:22;;;;;;;4.55;4.15;;;16.30;99.90;;;;;;5034206;28;20021;-74
2021/07/09 10:40:48;;;;;;;4.50;4.20;;;16.60;99.90;;;;;;5034173;28;20021;-75
2021/07/09 10:43:15;;;;;;;4.70;4.15;;;16.70;99.90;;;;;;5033838;28;20025;-74
2021/07/09 10:45:42;;;;;;;4.65;4.07;;;16.70;99.90;;;;;;5033819;28;20100;-75
2021/07/09 10:48:17;;;;;;;4.38;4.00;;;16.80;99.90;;;;;;5033918;28;20057;-74
2021/07/09 10:50:51;;;;;;;4.78;4.30;;;16.90;99.90;;;;;;5033914;28;20052;-74
2021/07/09 10:53:18;;;;;;;4.40;4.07;;;17.20;99.90;;;;;;5032391;28;20483;-74
2021/07/09 10:55:57;;;;;;;4.30;3.85;;;17.40;99.90;;;;;;5033463;28;20075;-74
2021/07/09 10:58:27;;;;;;;4.65;4.22;;;17.50;99.90;;;;;;5033761;28;20026;-74
2021/07/09 11:01:12;;;;;;;4.45;4.05;;;17.50;99.90;;;;;;5033699;28;20025;-74
2021/07/09 11:03:39;;;;;;;4.35;3.95;;;17.80;99.90;;;;;;5033536;28;20053;-74
2021/07/09 11:06:22;;;;;;;4.57;4.18;;;18.10;99.90;;;;;;5033171;28;20381;-74
2021/07/09 11:08:51;;;;;;;4.32;3.90;;;18.10;99.90;;;;;;5033514;28;20072;-75
2021/07/09 11:11:28;;;;;;;4.60;4.18;;;18.20;99.90;;;;;;5033444;28;20021;-75
2021/07/09 11:13:58;;;;;;;4.35;3.95;;;18.30;99.90;;;;;;5033504;28;20072;-75
2021/07/09 11:16:31;;;;;;;5.97;4.47;;;18.00;99.90;;;;;;5032943;28;20025;-75
2021/07/09 11:19:00;;;;;;;4.38;3.97;;;17.70;99.90;;;;;;5032014;28;20079;-74
2021/07/09 11:21:32;;;;;;;5.78;4.90;;;17.60;99.90;;;;;;5031959;28;20057;-74
2021/07/09 11:24:05;;;;;;;5.43;4.15;;;17.60;99.90;;;;;;5032117;28;20052;-74
2021/07/09 11:26:36;;;;;;;4.45;4.05;;;17.60;99.90;;;;;;5033302;28;20105;-74
2021/07/09 11:29:22;;;;;;;7.65;4.53;;;17.50;99.90;;;;;;5033338;28;20482;-74
2021/07/09 11:31:49;;;;;;;4.93;4.53;;;17.30;99.90;;;;;;5033190;28;20018;-74
2021/07/09 11:34:16;;;;;;;5.40;4.65;;;17.20;99.90;;;;;;5033175;28;20026;-74
2021/07/09 11:36:48;;;;;;;4.50;4.10;;;17.20;99.90;;;;;;5031715;28;20056;-75
2021/07/09 11:39:15;;;;;;;5.43;4.20;;;17.10;99.90;;;;;;5031745;28;20480;-75
2021/07/09 11:41:53;;;;;;;4.75;4.25;;;17.00;99.90;;;;;;5033053;28;20033;-75
2021/07/09 11:44:20;;;;;;;5.85;3.90;;;17.10;99.90;;;;;;5033136;28;20022;-74
2021/07/09 11:46:50;;;;;;;7.00;5.03;;;17.00;99.90;;;;;;5031686;28;20108;-74
2021/07/09 11:49:39;;;;;;;5.35;4.65;;;16.90;99.90;;;;;;5032780;28;20057;-74
2021/07/09 11:52:11;;;;;;;9.85;4.35;;;16.90;99.90;;;;;;5032467;28;20034;-75
2021/07/09 11:54:47;;;;;;;5.72;4.55;;;16.80;99.90;;;;;;5031511;28;20082;-75
2021/07/09 11:57:16;;;;;;;3.50;3.20;;;16.80;99.90;;;;;;5031491;28;20025;-75
2021/07/09 11:59:44;;;;;;;3.95;3.35;;;16.80;99.90;;;;;;5032654;28;20038;-75
2021/07/09 12:02:13;;;;;;;3.00;2.70;;;16.90;99.90;;;;;;5032612;28;20026;-74
2021/07/09 12:04:45;;;;;;;3.28;2.97;;;16.90;99.90;;;;;;5032304;28;20581;-74
2021/07/09 12:07:27;;;;;;;4.72;3.20;;;17.00;99.90;;;;;;5031372;28;20116;-75
2021/07/09 12:10:05;;;;;;;3.92;2.80;;;17.10;99.90;;;;;;5032694;28;20063;-74
2021/07/09 12:12:43;;;;;;;3.28;2.80;;;17.10;99.90;;;;;;5032422;28;20384;-75
2021/07/09 12:15:15;;;;;;;3.42;2.78;;;17.10;99.90;;;;;;5032716;28;20053;-74
2021/07/09 12:18:10;;;;;;;2.67;2.47;;;17.10;99.90;;;;;;5032348;28;20075;-74
2021/07/09 12:20:37;;;;;;;2.88;2.58;;;16.90;99.90;;;;;;5030970;28;20079;-75
2021/07/09 12:23:10;;;;;;;2.95;2.50;;;16.90;99.90;;;;;;5032380;28;20029;-75
2021/07/09 12:25:41;;;;;;;3.22;2.30;;;16.90;99.90;;;;;;5030407;28;20361;-75
2021/07/09 12:28:18;;;;;;;3.35;2.50;;;16.90;99.90;;;;;;5031080;28;20025;-75
2021/07/09 12:30:49;;;;;;;2.50;2.30;;;16.90;99.90;;;;;;5032191;28;20030;-74
2021/07/09 12:33:40;;;;;;;3.25;2.60;;;16.90;99.90;;;;;;5032060;28;20013;-74
2021/07/09 12:36:10;;;;;;;3.90;2.55;;;16.80;99.90;;;;;;5012377;28;20041;-74
2021/07/09 12:38:38;;;;;;;3.10;2.80;;;16.90;99.90;;;;;;5027746;28;20033;-74
2021/07/09 12:41:08;;;;;;;3.83;2.90;;;17.00;99.90;;;;;;5031970;28;20029;-74